sensor_id;sensor_type;location;lat;lon;timestamp;temperature;humidity
76789;DHT22;65740;52.464;13.446;2023-01-15T00:02:06;18.30;47.70
76789;DHT22;65740;52.464;13.446;2023-01-15T00:04:31;18.30;47.70
76789;DHT22;65740;52.464;13.446;2023-01-15T00:06:57;18.30;47.70
76789;DHT22;65740;52.464;13.446;2023-01-15T00:09:22;18.30;47.70
76789;DHT22;65740;52.464;13.446;2023-01-15T00:11:48;18.20;47.60
76789;DHT22;65740;52.464;13.446;2023-01-15T00:14:14;18.20;47.60
76789;DHT22;65740;52.464;13.446;2023-01-15T00:16:39;18.30;47.70
76789;DHT22;65740;52.464;13.446;2023-01-15T00:19:05;18.20;47.60
76789;DHT22;65740;52.464;13.446;2023-01-15T00:21:33;18.30;47.60
76789;DHT22;65740;52.464;13.446;2023-01-15T00:23:59;18.30;47.60
76789;DHT22;65740;52.464;13.446;2023-01-15T00:26:43;18.30;47.70
76789;DHT22;65740;52.464;13.446;2023-01-15T00:29:27;18.20;47.60
76789;DHT22;65740;52.464;13.446;2023-01-15T00:31:59;18.30;47.70
76789;DHT22;65740;52.464;13.446;2023-01-15T00:34:26;18.30;48.00
76789;DHT22;65740;52.464;13.446;2023-01-15T00:36:52;18.20;47.60
76789;DHT22;65740;52.464;13.446;2023-01-15T00:39:18;18.30;47.60
76789;DHT22;65740;52.464;13.446;2023-01-15T00:41:43;18.20;47.50
76789;DHT22;65740;52.464;13.446;2023-01-15T00:44:09;18.30;47.60
76789;DHT22;65740;52.464;13.446;2023-01-15T00:46:35;18.20;47.60
76789;DHT22;65740;52.464;13.446;2023-01-15T00:49:02;18.20;47.60
76789;DHT22;65740;52.464;13.446;2023-01-15T00:51:27;18.30;47.70
76789;DHT22;65740;52.464;13.446;2023-01-15T00:53:53;18.30;47.60
76789;DHT22;65740;52.464;13.446;2023-01-15T00:56:18;18.20;47.60
76789;DHT22;65740;52.464;13.446;2023-01-15T00:58:44;18.30;47.70
76789;DHT22;65740;52.464;13.446;2023-01-15T01:01:12;18.20;47.60
76789;DHT22;65740;52.464;13.446;2023-01-15T01:03:38;18.30;47.60
76789;DHT22;65740;52.464;13.446;2023-01-15T01:06:04;18.20;47.50
76789;DHT22;65740;52.464;13.446;2023-01-15T01:08:29;18.20;47.60
76789;DHT22;65740;52.464;13.446;2023-01-15T01:11:02;18.20;47.60
76789;DHT22;65740;52.464;13.446;2023-01-15T01:13:28;18.20;47.60
76789;DHT22;65740;52.464;13.446;2023-01-15T01:15:54;18.20;47.60
76789;DHT22;65740;52.464;13.446;2023-01-15T01:18:19;18.20;47.60
76789;DHT22;65740;52.464;13.446;2023-01-15T01:20:45;18.20;47.50
76789;DHT22;65740;52.464;13.446;2023-01-15T01:23:10;18.20;47.60
76789;DHT22;65740;52.464;13.446;2023-01-15T01:25:36;18.20;47.60
76789;DHT22;65740;52.464;13.446;2023-01-15T01:28:01;18.20;47.50
76789;DHT22;65740;52.464;13.446;2023-01-15T01:30:27;18.20;47.50
76789;DHT22;65740;52.464;13.446;2023-01-15T01:32:53;18.20;48.30
76789;DHT22;65740;52.464;13.446;2023-01-15T01:35:18;18.20;48.30
76789;DHT22;65740;52.464;13.446;2023-01-15T01:37:48;18.20;47.50
76789;DHT22;65740;52.464;13.446;2023-01-15T01:40:15;18.20;48.30
76789;DHT22;65740;52.464;13.446;2023-01-15T01:42:40;18.20;47.60
76789;DHT22;65740;52.464;13.446;2023-01-15T01:45:24;18.20;47.60
76789;DHT22;65740;52.464;13.446;2023-01-15T01:47:55;18.20;47.60
76789;DHT22;65740;52.464;13.446;2023-01-15T01:50:22;18.20;47.60
76789;DHT22;65740;52.464;13.446;2023-01-15T01:52:52;18.20;47.60
76789;DHT22;65740;52.464;13.446;2023-01-15T01:55:21;18.20;47.70
76789;DHT22;65740;52.464;13.446;2023-01-15T01:57:50;18.20;47.60
76789;DHT22;65740;52.464;13.446;2023-01-15T02:00:16;18.20;47.60
76789;DHT22;65740;52.464;13.446;2023-01-15T02:02:44;18.20;47.70
76789;DHT22;65740;52.464;13.446;2023-01-15T02:05:16;18.20;47.70
76789;DHT22;65740;52.464;13.446;2023-01-15T02:07:42;18.20;47.70
76789;DHT22;65740;52.464;13.446;2023-01-15T02:10:13;18.20;47.70
76789;DHT22;65740;52.464;13.446;2023-01-15T02:12:41;18.20;47.70
76789;DHT22;65740;52.464;13.446;2023-01-15T02:15:19;18.20;47.70
76789;DHT22;65740;52.464;13.446;2023-01-15T02:17:55;18.20;47.60
76789;DHT22;65740;52.464;13.446;2023-01-15T02:20:38;18.20;47.70
76789;DHT22;65740;52.464;13.446;2023-01-15T02:23:37;18.20;47.70
76789;DHT22;65740;52.464;13.446;2023-01-15T02:28:56;18.20;47.70
76789;DHT22;65740;52.464;13.446;2023-01-15T02:31:41;18.20;47.70
76789;DHT22;65740;52.464;13.446;2023-01-15T02:34:34;18.20;47.70
76789;DHT22;65740;52.464;13.446;2023-01-15T02:37:12;18.20;47.70
76789;DHT22;65740;52.464;13.446;2023-01-15T02:39:41;18.20;47.70
76789;DHT22;65740;52.464;13.446;2023-01-15T02:42:09;18.10;47.60
76789;DHT22;65740;52.464;13.446;2023-01-15T02:44:43;18.20;47.70
76789;DHT22;65740;52.464;13.446;2023-01-15T02:47:11;18.20;48.30
76789;DHT22;65740;52.464;13.446;2023-01-15T02:49:38;18.20;47.60
76789;DHT22;65740;52.464;13.446;2023-01-15T02:52:27;18.20;47.70
76789;DHT22;65740;52.464;13.446;2023-01-15T02:54:59;18.20;47.60
76789;DHT22;65740;52.464;13.446;2023-01-15T02:57:29;18.20;47.60
76789;DHT22;65740;52.464;13.446;2023-01-15T02:59:59;18.20;47.60
76789;DHT22;65740;52.464;13.446;2023-01-15T03:02:30;18.20;47.60
76789;DHT22;65740;52.464;13.446;2023-01-15T03:05:21;18.20;47.60
76789;DHT22;65740;52.464;13.446;2023-01-15T03:07:51;18.20;47.50
76789;DHT22;65740;52.464;13.446;2023-01-15T03:10:18;18.20;47.60
76789;DHT22;65740;52.464;13.446;2023-01-15T03:12:56;18.30;47.60
76789;DHT22;65740;52.464;13.446;2023-01-15T03:16:00;18.30;47.70
76789;DHT22;65740;52.464;13.446;2023-01-15T03:19:05;18.20;47.60
76789;DHT22;65740;52.464;13.446;2023-01-15T03:21:54;18.30;47.70
76789;DHT22;65740;52.464;13.446;2023-01-15T03:24:28;18.30;47.70
76789;DHT22;65740;52.464;13.446;2023-01-15T03:26:56;18.20;47.60
76789;DHT22;65740;52.464;13.446;2023-01-15T03:29:24;18.30;47.70
76789;DHT22;65740;52.464;13.446;2023-01-15T03:31:50;18.20;47.60
76789;DHT22;65740;52.464;13.446;2023-01-15T03:34:16;18.30;47.80
76789;DHT22;65740;52.464;13.446;2023-01-15T03:36:41;18.20;47.70
76789;DHT22;65740;52.464;13.446;2023-01-15T03:39:07;18.20;47.70
76789;DHT22;65740;52.464;13.446;2023-01-15T03:41:55;18.30;47.90
76789;DHT22;65740;52.464;13.446;2023-01-15T03:52:15;18.20;47.80
76789;DHT22;65740;52.464;13.446;2023-01-15T03:57:50;18.20;47.80
76789;DHT22;65740;52.464;13.446;2023-01-15T04:00:26;18.20;47.80
76789;DHT22;65740;52.464;13.446;2023-01-15T04:02:54;18.20;47.80
76789;DHT22;65740;52.464;13.446;2023-01-15T04:05:21;18.20;47.80
76789;DHT22;65740;52.464;13.446;2023-01-15T04:07:49;18.20;47.90
76789;DHT22;65740;52.464;13.446;2023-01-15T04:10:15;18.20;47.90
76789;DHT22;65740;52.464;13.446;2023-01-15T04:12:41;18.20;47.80
76789;DHT22;65740;52.464;13.446;2023-01-15T04:15:07;18.20;47.90
76789;DHT22;65740;52.464;13.446;2023-01-15T04:17:33;18.20;47.80
76789;DHT22;65740;52.464;13.446;2023-01-15T04:19:58;18.20;47.80
76789;DHT22;65740;52.464;13.446;2023-01-15T04:22:24;18.20;47.90
76789;DHT22;65740;52.464;13.446;2023-01-15T04:24:49;18.20;47.80
76789;DHT22;65740;52.464;13.446;2023-01-15T04:27:15;18.20;47.90
76789;DHT22;65740;52.464;13.446;2023-01-15T04:29:41;18.20;47.80
76789;DHT22;65740;52.464;13.446;2023-01-15T04:32:06;18.20;47.80
76789;DHT22;65740;52.464;13.446;2023-01-15T04:34:32;18.20;47.80
76789;DHT22;65740;52.464;13.446;2023-01-15T04:37:00;18.20;47.90
76789;DHT22;65740;52.464;13.446;2023-01-15T04:39:25;18.20;47.80
76789;DHT22;65740;52.464;13.446;2023-01-15T04:41:51;18.20;47.80
76789;DHT22;65740;52.464;13.446;2023-01-15T04:44:36;18.20;47.80
76789;DHT22;65740;52.464;13.446;2023-01-15T04:47:01;18.20;47.80
76789;DHT22;65740;52.464;13.446;2023-01-15T04:49:27;18.20;47.90
76789;DHT22;65740;52.464;13.446;2023-01-15T04:51:53;18.20;47.80
76789;DHT22;65740;52.464;13.446;2023-01-15T04:54:19;18.20;47.90
76789;DHT22;65740;52.464;13.446;2023-01-15T04:56:49;18.20;47.90
76789;DHT22;65740;52.464;13.446;2023-01-15T04:59:17;18.20;47.90
76789;DHT22;65740;52.464;13.446;2023-01-15T05:01:43;18.20;47.90
76789;DHT22;65740;52.464;13.446;2023-01-15T05:04:08;18.20;47.90
76789;DHT22;65740;52.464;13.446;2023-01-15T05:06:34;18.20;48.60
76789;DHT22;65740;52.464;13.446;2023-01-15T05:09:00;18.20;47.90
76789;DHT22;65740;52.464;13.446;2023-01-15T05:11:27;18.20;47.90
76789;DHT22;65740;52.464;13.446;2023-01-15T05:13:54;18.20;47.90
76789;DHT22;65740;52.464;13.446;2023-01-15T05:16:25;18.20;47.90
76789;DHT22;65740;52.464;13.446;2023-01-15T05:18:53;18.20;47.90
76789;DHT22;65740;52.464;13.446;2023-01-15T05:21:23;18.20;47.80
76789;DHT22;65740;52.464;13.446;2023-01-15T05:23:50;18.20;47.90
76789;DHT22;65740;52.464;13.446;2023-01-15T05:26:16;18.20;47.80
76789;DHT22;65740;52.464;13.446;2023-01-15T05:28:43;18.30;47.90
76789;DHT22;65740;52.464;13.446;2023-01-15T05:31:16;18.20;47.80
76789;DHT22;65740;52.464;13.446;2023-01-15T05:33:43;18.20;47.80
76789;DHT22;65740;52.464;13.446;2023-01-15T05:36:11;18.20;47.80
76789;DHT22;65740;52.464;13.446;2023-01-15T05:38:38;18.20;47.80
76789;DHT22;65740;52.464;13.446;2023-01-15T05:41:09;18.30;47.90
76789;DHT22;65740;52.464;13.446;2023-01-15T05:43:55;18.20;47.80
76789;DHT22;65740;52.464;13.446;2023-01-15T05:46:21;18.20;47.80
76789;DHT22;65740;52.464;13.446;2023-01-15T05:48:47;18.30;47.90
76789;DHT22;65740;52.464;13.446;2023-01-15T05:51:13;18.30;47.90
76789;DHT22;65740;52.464;13.446;2023-01-15T05:53:39;18.30;47.90
76789;DHT22;65740;52.464;13.446;2023-01-15T05:56:05;18.30;48.60
76789;DHT22;65740;52.464;13.446;2023-01-15T05:58:31;18.20;47.80
76789;DHT22;65740;52.464;13.446;2023-01-15T06:00:57;18.30;47.90
76789;DHT22;65740;52.464;13.446;2023-01-15T06:03:23;18.30;47.90
76789;DHT22;65740;52.464;13.446;2023-01-15T06:05:51;18.30;48.20
76789;DHT22;65740;52.464;13.446;2023-01-15T06:08:16;18.30;47.90
76789;DHT22;65740;52.464;13.446;2023-01-15T06:10:46;18.20;47.80
76789;DHT22;65740;52.464;13.446;2023-01-15T06:13:12;18.20;47.80
76789;DHT22;65740;52.464;13.446;2023-01-15T06:15:38;18.20;48.50
76789;DHT22;65740;52.464;13.446;2023-01-15T06:18:04;18.20;47.90
76789;DHT22;65740;52.464;13.446;2023-01-15T06:20:30;18.20;47.90
76789;DHT22;65740;52.464;13.446;2023-01-15T06:22:55;18.20;47.80
76789;DHT22;65740;52.464;13.446;2023-01-15T06:25:21;18.20;47.90
76789;DHT22;65740;52.464;13.446;2023-01-15T06:27:47;18.20;47.80
76789;DHT22;65740;52.464;13.446;2023-01-15T06:30:14;18.20;47.90
76789;DHT22;65740;52.464;13.446;2023-01-15T06:32:39;18.20;47.90
76789;DHT22;65740;52.464;13.446;2023-01-15T06:35:06;18.20;47.90
76789;DHT22;65740;52.464;13.446;2023-01-15T06:37:31;18.10;47.70
76789;DHT22;65740;52.464;13.446;2023-01-15T06:39:57;18.20;47.90
76789;DHT22;65740;52.464;13.446;2023-01-15T06:42:22;18.20;47.90
76789;DHT22;65740;52.464;13.446;2023-01-15T06:45:09;18.20;47.90
76789;DHT22;65740;52.464;13.446;2023-01-15T06:47:53;18.20;47.90
76789;DHT22;65740;52.464;13.446;2023-01-15T06:50:18;18.20;47.80
76789;DHT22;65740;52.464;13.446;2023-01-15T06:52:44;18.10;47.70
76789;DHT22;65740;52.464;13.446;2023-01-15T06:55:10;18.10;47.70
76789;DHT22;65740;52.464;13.446;2023-01-15T06:57:38;18.20;47.80
76789;DHT22;65740;52.464;13.446;2023-01-15T07:00:07;18.10;47.70
76789;DHT22;65740;52.464;13.446;2023-01-15T07:02:33;18.20;47.80
76789;DHT22;65740;52.464;13.446;2023-01-15T07:04:59;18.20;47.80
76789;DHT22;65740;52.464;13.446;2023-01-15T07:07:27;18.20;47.80
76789;DHT22;65740;52.464;13.446;2023-01-15T07:09:53;18.20;47.80
76789;DHT22;65740;52.464;13.446;2023-01-15T07:12:19;18.10;47.60
76789;DHT22;65740;52.464;13.446;2023-01-15T07:14:45;18.20;47.70
76789;DHT22;65740;52.464;13.446;2023-01-15T07:17:11;18.20;47.70
76789;DHT22;65740;52.464;13.446;2023-01-15T07:19:37;18.20;47.70
76789;DHT22;65740;52.464;13.446;2023-01-15T07:22:03;18.20;47.60
76789;DHT22;65740;52.464;13.446;2023-01-15T07:24:29;18.20;47.70
76789;DHT22;65740;52.464;13.446;2023-01-15T07:26:54;18.20;47.60
76789;DHT22;65740;52.464;13.446;2023-01-15T07:29:20;18.20;47.60
76789;DHT22;65740;52.464;13.446;2023-01-15T07:31:47;18.20;47.60
76789;DHT22;65740;52.464;13.446;2023-01-15T07:34:13;18.20;47.60
76789;DHT22;65740;52.464;13.446;2023-01-15T07:36:39;18.20;47.60
76789;DHT22;65740;52.464;13.446;2023-01-15T07:39:06;18.20;47.60
76789;DHT22;65740;52.464;13.446;2023-01-15T07:41:32;18.20;47.60
76789;DHT22;65740;52.464;13.446;2023-01-15T07:44:16;18.20;47.60
76789;DHT22;65740;52.464;13.446;2023-01-15T07:47:01;18.20;47.50
76789;DHT22;65740;52.464;13.446;2023-01-15T07:49:45;18.20;47.60
76789;DHT22;65740;52.464;13.446;2023-01-15T07:52:17;18.20;47.60
76789;DHT22;65740;52.464;13.446;2023-01-15T07:54:44;18.20;47.60
76789;DHT22;65740;52.464;13.446;2023-01-15T07:57:12;18.20;47.60
76789;DHT22;65740;52.464;13.446;2023-01-15T07:59:39;18.10;47.50
76789;DHT22;65740;52.464;13.446;2023-01-15T08:02:04;18.10;47.50
76789;DHT22;65740;52.464;13.446;2023-01-15T08:04:30;18.10;47.50
76789;DHT22;65740;52.464;13.446;2023-01-15T08:07:01;18.10;47.50
76789;DHT22;65740;52.464;13.446;2023-01-15T08:09:28;18.10;47.50
76789;DHT22;65740;52.464;13.446;2023-01-15T08:11:54;18.10;47.50
76789;DHT22;65740;52.464;13.446;2023-01-15T08:14:39;18.10;47.50
76789;DHT22;65740;52.464;13.446;2023-01-15T08:17:23;18.10;47.40
76789;DHT22;65740;52.464;13.446;2023-01-15T08:19:49;18.10;47.40
76789;DHT22;65740;52.464;13.446;2023-01-15T08:22:14;18.10;47.40
76789;DHT22;65740;52.464;13.446;2023-01-15T08:24:40;18.10;47.40
76789;DHT22;65740;52.464;13.446;2023-01-15T08:27:06;18.10;47.40
76789;DHT22;65740;52.464;13.446;2023-01-15T08:29:31;18.10;47.40
76789;DHT22;65740;52.464;13.446;2023-01-15T08:31:57;18.10;47.40
76789;DHT22;65740;52.464;13.446;2023-01-15T08:34:22;18.10;47.40
76789;DHT22;65740;52.464;13.446;2023-01-15T08:36:48;18.10;47.40
76789;DHT22;65740;52.464;13.446;2023-01-15T08:39:17;18.10;47.40
76789;DHT22;65740;52.464;13.446;2023-01-15T08:41:42;18.10;47.30
76789;DHT22;65740;52.464;13.446;2023-01-15T08:44:09;18.10;47.40
76789;DHT22;65740;52.464;13.446;2023-01-15T08:46:35;18.10;47.40
76789;DHT22;65740;52.464;13.446;2023-01-15T08:49:00;18.10;47.40
76789;DHT22;65740;52.464;13.446;2023-01-15T08:51:26;18.10;47.30
76789;DHT22;65740;52.464;13.446;2023-01-15T08:53:51;18.10;47.20
76789;DHT22;65740;52.464;13.446;2023-01-15T08:56:18;18.10;47.20
76789;DHT22;65740;52.464;13.446;2023-01-15T08:58:45;18.10;47.20
76789;DHT22;65740;52.464;13.446;2023-01-15T09:01:12;18.10;47.20
76789;DHT22;65740;52.464;13.446;2023-01-15T09:03:43;18.10;47.10
76789;DHT22;65740;52.464;13.446;2023-01-15T09:06:09;18.10;47.10
76789;DHT22;65740;52.464;13.446;2023-01-15T09:08:36;18.10;47.20
76789;DHT22;65740;52.464;13.446;2023-01-15T09:11:03;18.10;47.10
76789;DHT22;65740;52.464;13.446;2023-01-15T09:13:29;18.10;47.10
76789;DHT22;65740;52.464;13.446;2023-01-15T09:16:02;18.10;47.10
76789;DHT22;65740;52.464;13.446;2023-01-15T09:18:29;18.10;47.20
76789;DHT22;65740;52.464;13.446;2023-01-15T09:20:55;18.10;47.10
76789;DHT22;65740;52.464;13.446;2023-01-15T09:23:20;18.10;47.10
76789;DHT22;65740;52.464;13.446;2023-01-15T09:25:53;18.10;47.10
76789;DHT22;65740;52.464;13.446;2023-01-15T09:28:18;18.10;47.10
76789;DHT22;65740;52.464;13.446;2023-01-15T09:30:44;18.10;47.10
76789;DHT22;65740;52.464;13.446;2023-01-15T09:33:09;18.10;47.20
76789;DHT22;65740;52.464;13.446;2023-01-15T09:35:35;18.10;47.10
76789;DHT22;65740;52.464;13.446;2023-01-15T09:38:01;18.10;47.10
76789;DHT22;65740;52.464;13.446;2023-01-15T09:46:14;18.10;47.10
76789;DHT22;65740;52.464;13.446;2023-01-15T09:48:50;18.10;47.10
76789;DHT22;65740;52.464;13.446;2023-01-15T09:51:43;18.10;47.10
76789;DHT22;65740;52.464;13.446;2023-01-15T09:54:47;18.10;47.00
76789;DHT22;65740;52.464;13.446;2023-01-15T09:57:17;18.10;47.00
76789;DHT22;65740;52.464;13.446;2023-01-15T09:59:45;18.10;47.10
76789;DHT22;65740;52.464;13.446;2023-01-15T10:02:43;18.10;47.00
76789;DHT22;65740;52.464;13.446;2023-01-15T10:07:40;18.10;47.00
76789;DHT22;65740;52.464;13.446;2023-01-15T10:10:17;18.10;47.00
76789;DHT22;65740;52.464;13.446;2023-01-15T10:12:45;18.10;47.00
76789;DHT22;65740;52.464;13.446;2023-01-15T10:17:43;18.10;46.90
76789;DHT22;65740;52.464;13.446;2023-01-15T10:25:45;18.10;46.90
76789;DHT22;65740;52.464;13.446;2023-01-15T10:30:57;18.10;46.80
76789;DHT22;65740;52.464;13.446;2023-01-15T10:38:57;18.10;46.90
76789;DHT22;65740;52.464;13.446;2023-01-15T10:41:42;18.10;46.80
76789;DHT22;65740;52.464;13.446;2023-01-15T10:44:19;18.10;46.80
76789;DHT22;65740;52.464;13.446;2023-01-15T10:46:58;18.10;46.80
76789;DHT22;65740;52.464;13.446;2023-01-15T10:49:28;18.10;46.80
76789;DHT22;65740;52.464;13.446;2023-01-15T10:52:21;18.10;46.80
76789;DHT22;65740;52.464;13.446;2023-01-15T10:54:46;18.10;46.80
76789;DHT22;65740;52.464;13.446;2023-01-15T10:59:59;18.10;46.90
76789;DHT22;65740;52.464;13.446;2023-01-15T11:04:53;18.10;46.90
76789;DHT22;65740;52.464;13.446;2023-01-15T11:07:22;18.10;46.80
76789;DHT22;65740;52.464;13.446;2023-01-15T11:09:50;18.10;46.80
76789;DHT22;65740;52.464;13.446;2023-01-15T11:12:22;18.10;46.90
76789;DHT22;65740;52.464;13.446;2023-01-15T11:14:49;18.10;46.80
76789;DHT22;65740;52.464;13.446;2023-01-15T11:17:41;18.10;46.90
76789;DHT22;65740;52.464;13.446;2023-01-15T11:20:34;18.10;46.90
76789;DHT22;65740;52.464;13.446;2023-01-15T11:23:15;18.10;46.90
76789;DHT22;65740;52.464;13.446;2023-01-15T11:25:56;18.10;46.90
76789;DHT22;65740;52.464;13.446;2023-01-15T11:28:38;18.10;46.80
76789;DHT22;65740;52.464;13.446;2023-01-15T11:31:09;18.10;46.80
76789;DHT22;65740;52.464;13.446;2023-01-15T11:33:36;18.10;46.80
76789;DHT22;65740;52.464;13.446;2023-01-15T11:36:05;18.10;46.80
76789;DHT22;65740;52.464;13.446;2023-01-15T11:38:43;18.10;46.80
76789;DHT22;65740;52.464;13.446;2023-01-15T11:43:57;18.10;46.80
76789;DHT22;65740;52.464;13.446;2023-01-15T11:46:45;18.10;46.80
76789;DHT22;65740;52.464;13.446;2023-01-15T11:49:29;18.10;46.80
76789;DHT22;65740;52.464;13.446;2023-01-15T11:52:20;18.10;46.80
76789;DHT22;65740;52.464;13.446;2023-01-15T11:54:53;18.10;46.80
76789;DHT22;65740;52.464;13.446;2023-01-15T11:57:27;18.10;46.70
76789;DHT22;65740;52.464;13.446;2023-01-15T11:59:54;18.10;46.80
76789;DHT22;65740;52.464;13.446;2023-01-15T12:02:31;18.10;46.70
76789;DHT22;65740;52.464;13.446;2023-01-15T12:05:22;18.10;46.80
76789;DHT22;65740;52.464;13.446;2023-01-15T12:07:51;18.10;47.50
76789;DHT22;65740;52.464;13.446;2023-01-15T12:13:45;18.10;46.80
76789;DHT22;65740;52.464;13.446;2023-01-15T12:19:07;18.10;46.80
76789;DHT22;65740;52.464;13.446;2023-01-15T12:24:50;18.10;46.80
76789;DHT22;65740;52.464;13.446;2023-01-15T12:27:50;18.10;46.80
76789;DHT22;65740;52.464;13.446;2023-01-15T12:30:39;18.10;46.80
76789;DHT22;65740;52.464;13.446;2023-01-15T12:33:17;18.10;46.80
76789;DHT22;65740;52.464;13.446;2023-01-15T12:35:49;18.10;46.80
76789;DHT22;65740;52.464;13.446;2023-01-15T12:38:30;18.10;46.80
76789;DHT22;65740;52.464;13.446;2023-01-15T12:41:02;18.10;46.80
76789;DHT22;65740;52.464;13.446;2023-01-15T12:43:28;18.20;46.90
76789;DHT22;65740;52.464;13.446;2023-01-15T12:46:16;18.20;46.90
76789;DHT22;65740;52.464;13.446;2023-01-15T12:48:55;18.10;46.80
76789;DHT22;65740;52.464;13.446;2023-01-15T12:51:49;18.20;47.00
76789;DHT22;65740;52.464;13.446;2023-01-15T12:54:22;18.20;46.90
76789;DHT22;65740;52.464;13.446;2023-01-15T12:56:58;18.10;46.80
76789;DHT22;65740;52.464;13.446;2023-01-15T12:59:34;18.10;46.90
76789;DHT22;65740;52.464;13.446;2023-01-15T13:02:20;18.10;46.90
76789;DHT22;65740;52.464;13.446;2023-01-15T13:04:48;18.10;46.90
76789;DHT22;65740;52.464;13.446;2023-01-15T13:07:33;18.10;46.90
76789;DHT22;65740;52.464;13.446;2023-01-15T13:10:01;18.10;47.00
76789;DHT22;65740;52.464;13.446;2023-01-15T13:12:32;18.10;47.60
76789;DHT22;65740;52.464;13.446;2023-01-15T13:14:58;18.10;46.90
76789;DHT22;65740;52.464;13.446;2023-01-15T13:22:30;18.10;46.80
76789;DHT22;65740;52.464;13.446;2023-01-15T13:25:22;18.20;46.90
76789;DHT22;65740;52.464;13.446;2023-01-15T13:33:23;18.10;46.90
76789;DHT22;65740;52.464;13.446;2023-01-15T13:38:36;18.10;46.90
76789;DHT22;65740;52.464;13.446;2023-01-15T13:41:06;18.10;46.90
76789;DHT22;65740;52.464;13.446;2023-01-15T13:43:38;18.10;46.90
76789;DHT22;65740;52.464;13.446;2023-01-15T13:46:09;18.10;47.00
76789;DHT22;65740;52.464;13.446;2023-01-15T13:48:49;18.10;47.00
76789;DHT22;65740;52.464;13.446;2023-01-15T13:51:32;18.10;47.00
76789;DHT22;65740;52.464;13.446;2023-01-15T13:54:04;18.10;47.00
76789;DHT22;65740;52.464;13.446;2023-01-15T13:56:37;18.10;47.00
76789;DHT22;65740;52.464;13.446;2023-01-15T13:59:05;18.10;47.00
76789;DHT22;65740;52.464;13.446;2023-01-15T14:01:35;18.10;47.00
76789;DHT22;65740;52.464;13.446;2023-01-15T14:06:51;18.10;47.00
76789;DHT22;65740;52.464;13.446;2023-01-15T14:25:21;18.10;47.00
76789;DHT22;65740;52.464;13.446;2023-01-15T14:31:13;18.20;47.10
76789;DHT22;65740;52.464;13.446;2023-01-15T14:36:28;18.10;47.00
76789;DHT22;65740;52.464;13.446;2023-01-15T14:38:57;18.10;47.10
76789;DHT22;65740;52.464;13.446;2023-01-15T14:41:30;18.10;47.10
76789;DHT22;65740;52.464;13.446;2023-01-15T14:43:57;18.10;47.10
76789;DHT22;65740;52.464;13.446;2023-01-15T14:48:53;18.10;47.10
76789;DHT22;65740;52.464;13.446;2023-01-15T14:51:33;18.10;47.10
76789;DHT22;65740;52.464;13.446;2023-01-15T14:54:07;18.10;47.70
76789;DHT22;65740;52.464;13.446;2023-01-15T14:56:39;18.10;47.80
76789;DHT22;65740;52.464;13.446;2023-01-15T15:02:19;18.10;47.20
76789;DHT22;65740;52.464;13.446;2023-01-15T15:04:56;18.10;47.70
76789;DHT22;65740;52.464;13.446;2023-01-15T15:07:25;18.10;47.80
76789;DHT22;65740;52.464;13.446;2023-01-15T15:10:12;18.10;47.10
76789;DHT22;65740;52.464;13.446;2023-01-15T15:18:31;18.10;47.20
76789;DHT22;65740;52.464;13.446;2023-01-15T15:21:11;18.10;47.10
76789;DHT22;65740;52.464;13.446;2023-01-15T15:26:26;18.10;47.10
76789;DHT22;65740;52.464;13.446;2023-01-15T15:28:59;18.10;47.10
76789;DHT22;65740;52.464;13.446;2023-01-15T15:31:27;18.10;47.10
76789;DHT22;65740;52.464;13.446;2023-01-15T15:33:55;18.10;47.00
76789;DHT22;65740;52.464;13.446;2023-01-15T15:36:29;18.10;47.00
76789;DHT22;65740;52.464;13.446;2023-01-15T15:39:03;18.10;47.00
76789;DHT22;65740;52.464;13.446;2023-01-15T15:41:37;18.10;47.00
76789;DHT22;65740;52.464;13.446;2023-01-15T15:44:31;18.10;47.00
76789;DHT22;65740;52.464;13.446;2023-01-15T15:47:23;18.10;47.00
76789;DHT22;65740;52.464;13.446;2023-01-15T15:50:19;18.10;46.90
76789;DHT22;65740;52.464;13.446;2023-01-15T15:52:49;18.10;47.00
76789;DHT22;65740;52.464;13.446;2023-01-15T15:55:17;18.10;46.90
76789;DHT22;65740;52.464;13.446;2023-01-15T15:57:46;18.10;47.00
76789;DHT22;65740;52.464;13.446;2023-01-15T16:00:17;18.10;47.00
76789;DHT22;65740;52.464;13.446;2023-01-15T16:02:44;18.10;47.00
76789;DHT22;65740;52.464;13.446;2023-01-15T16:05:23;18.10;46.90
76789;DHT22;65740;52.464;13.446;2023-01-15T16:07:49;18.10;46.90
76789;DHT22;65740;52.464;13.446;2023-01-15T16:10:31;18.00;46.80
76789;DHT22;65740;52.464;13.446;2023-01-15T16:13:02;18.00;46.80
76789;DHT22;65740;52.464;13.446;2023-01-15T16:15:35;18.00;47.50
76789;DHT22;65740;52.464;13.446;2023-01-15T16:18:02;18.10;47.50
76789;DHT22;65740;52.464;13.446;2023-01-15T16:20:28;18.00;46.70
76789;DHT22;65740;52.464;13.446;2023-01-15T16:23:03;18.00;46.80
76789;DHT22;65740;52.464;13.446;2023-01-15T16:25:35;18.00;46.70
76789;DHT22;65740;52.464;13.446;2023-01-15T16:28:03;18.00;46.70
76789;DHT22;65740;52.464;13.446;2023-01-15T16:30:30;18.00;46.70
76789;DHT22;65740;52.464;13.446;2023-01-15T16:33:00;18.00;46.70
76789;DHT22;65740;52.464;13.446;2023-01-15T16:35:29;18.00;46.70
76789;DHT22;65740;52.464;13.446;2023-01-15T16:37:57;18.00;46.70
76789;DHT22;65740;52.464;13.446;2023-01-15T16:40:31;18.00;46.60
76789;DHT22;65740;52.464;13.446;2023-01-15T16:43:10;18.00;46.60
76789;DHT22;65740;52.464;13.446;2023-01-15T16:46:08;18.00;46.60
76789;DHT22;65740;52.464;13.446;2023-01-15T16:48:40;18.00;46.50
76789;DHT22;65740;52.464;13.446;2023-01-15T16:51:32;18.00;46.50
76789;DHT22;65740;52.464;13.446;2023-01-15T16:54:00;18.00;46.50
76789;DHT22;65740;52.464;13.446;2023-01-15T16:59:00;18.00;47.20
76789;DHT22;65740;52.464;13.446;2023-01-15T17:01:32;18.00;46.50
76789;DHT22;65740;52.464;13.446;2023-01-15T17:04:00;18.00;46.40
76789;DHT22;65740;52.464;13.446;2023-01-15T17:06:27;18.00;46.40
76789;DHT22;65740;52.464;13.446;2023-01-15T17:08:54;18.00;46.40
76789;DHT22;65740;52.464;13.446;2023-01-15T17:11:24;18.00;46.90
76789;DHT22;65740;52.464;13.446;2023-01-15T17:13:50;18.00;46.20
76789;DHT22;65740;52.464;13.446;2023-01-15T17:16:21;18.00;46.90
76789;DHT22;65740;52.464;13.446;2023-01-15T17:18:49;18.00;46.20
76789;DHT22;65740;52.464;13.446;2023-01-15T17:21:16;18.00;46.20
76789;DHT22;65740;52.464;13.446;2023-01-15T17:23:45;18.00;46.10
76789;DHT22;65740;52.464;13.446;2023-01-15T17:26:16;17.90;46.70
76789;DHT22;65740;52.464;13.446;2023-01-15T17:28:42;18.00;46.20
76789;DHT22;65740;52.464;13.446;2023-01-15T17:31:32;18.00;46.00